Capitol Logistics 2491

Operating for GTI



EHAM
Schiphol International Airport
Amsterdam, NL
KORD
Chicago O'Hare International Airport
Chicago, US

Activity Log

Date Flight Route Aircraft Duration
10/14/2019 CPX972 BERGI M90 NEXUS UP59 BALIX 6120N N6230 6340N 6350N LIBOR N866A RODBO SEMTO VEPTU PEMLU SSM WYNDE9 B744 9h 16m

Route Details

Aircraft Information
Primary: Boeing 767-300BDSF
Backup: Not Available
Route Data
Distance: 3574nm
Duration: 9h 24m
Recm'd Route: 6000N/02000W 6100N/03000W 6100N/04000W 6000N/05000W URTAK MOATT LOMTA N760A VANSI YTS TVC WYNDE2
Origin Wx: EHAM 191125Z 24011KT 200V280 9999 FEW014 BKN017 18/14 Q1015 BECMG SCT018
Dest. Wx: KORD 191151Z 20010G19KT 10SM FEW055 SCT150 BKN250 23/18 A2978 RMK AO2 SLP079 70001 T02280183 10244 20222 58007 $
Notes: 1X PER WEEK